sensor_id;sensor_type;location;lat;lon;timestamp;pressure;altitude;pressure_sealevel;temperature
34807;BMP280;18310;55.586;12.286;2023-10-31T00:00:44;99793.50;;;16.61
34807;BMP280;18310;55.586;12.286;2023-10-31T00:03:48;99786.81;;;16.62
34807;BMP280;18310;55.586;12.286;2023-10-31T00:06:51;99780.53;;;16.61
34807;BMP280;18310;55.586;12.286;2023-10-31T00:09:54;99778.16;;;16.63
34807;BMP280;18310;55.586;12.286;2023-10-31T00:12:57;99766.34;;;16.66
34807;BMP280;18310;55.586;12.286;2023-10-31T00:16:02;99762.34;;;16.71
34807;BMP280;18310;55.586;12.286;2023-10-31T00:19:05;99755.25;;;16.73
34807;BMP280;18310;55.586;12.286;2023-10-31T00:22:09;99751.66;;;16.76
34807;BMP280;18310;55.586;12.286;2023-10-31T00:25:12;99742.56;;;16.79
34807;BMP280;18310;55.586;12.286;2023-10-31T00:28:15;99741.75;;;16.82
34807;BMP280;18310;55.586;12.286;2023-10-31T00:31:20;99746.03;;;16.83
34807;BMP280;18310;55.586;12.286;2023-10-31T00:34:23;99751.50;;;16.87
34807;BMP280;18310;55.586;12.286;2023-10-31T00:37:26;99738.47;;;16.91
34807;BMP280;18310;55.586;12.286;2023-10-31T00:40:29;99741.56;;;16.93
34807;BMP280;18310;55.586;12.286;2023-10-31T00:43:32;99735.63;;;16.94
34807;BMP280;18310;55.586;12.286;2023-10-31T00:46:36;99725.84;;;16.93
34807;BMP280;18310;55.586;12.286;2023-10-31T00:49:40;99727.38;;;16.94
34807;BMP280;18310;55.586;12.286;2023-10-31T00:52:43;99716.38;;;16.94
34807;BMP280;18310;55.586;12.286;2023-10-31T00:55:47;99718.81;;;16.92
34807;BMP280;18310;55.586;12.286;2023-10-31T00:58:50;99713.41;;;16.85
34807;BMP280;18310;55.586;12.286;2023-10-31T01:01:55;99714.69;;;16.81
34807;BMP280;18310;55.586;12.286;2023-10-31T01:04:58;99712.00;;;16.77
34807;BMP280;18310;55.586;12.286;2023-10-31T01:08:02;99701.00;;;16.77
34807;BMP280;18310;55.586;12.286;2023-10-31T01:11:05;99699.41;;;16.80
34807;BMP280;18310;55.586;12.286;2023-10-31T01:14:09;99696.66;;;16.80
34807;BMP280;18310;55.586;12.286;2023-10-31T01:17:13;99689.19;;;16.80
34807;BMP280;18310;55.586;12.286;2023-10-31T01:20:16;99683.25;;;16.82
34807;BMP280;18310;55.586;12.286;2023-10-31T01:23:20;99676.13;;;16.84
34807;BMP280;18310;55.586;12.286;2023-10-31T01:26:23;99664.72;;;16.86
34807;BMP280;18310;55.586;12.286;2023-10-31T01:29:26;99660.00;;;16.86
34807;BMP280;18310;55.586;12.286;2023-10-31T01:32:30;99662.69;;;16.90
34807;BMP280;18310;55.586;12.286;2023-10-31T01:35:34;99663.06;;;16.92
34807;BMP280;18310;55.586;12.286;2023-10-31T01:38:37;99653.25;;;16.91
34807;BMP280;18310;55.586;12.286;2023-10-31T01:41:41;99645.72;;;16.95
34807;BMP280;18310;55.586;12.286;2023-10-31T01:44:43;99635.59;;;16.92
34807;BMP280;18310;55.586;12.286;2023-10-31T01:47:48;99631.97;;;16.95
34807;BMP280;18310;55.586;12.286;2023-10-31T01:50:52;99620.97;;;16.95
34807;BMP280;18310;55.586;12.286;2023-10-31T01:53:55;99615.06;;;16.97
34807;BMP280;18310;55.586;12.286;2023-10-31T01:56:59;99611.47;;;17.00
34807;BMP280;18310;55.586;12.286;2023-10-31T02:00:04;99592.66;;;16.98
34807;BMP280;18310;55.586;12.286;2023-10-31T02:03:09;99595.75;;;17.00
34807;BMP280;18310;55.586;12.286;2023-10-31T02:06:12;99584.41;;;16.98
34807;BMP280;18310;55.586;12.286;2023-10-31T02:09:15;99587.47;;;17.04
34807;BMP280;18310;55.586;12.286;2023-10-31T02:12:34;99562.34;;;17.02
34807;BMP280;18310;55.586;12.286;2023-10-31T02:15:37;99559.69;;;16.98
34807;BMP280;18310;55.586;12.286;2023-10-31T02:18:42;99554.22;;;16.94
34807;BMP280;18310;55.586;12.286;2023-10-31T02:21:46;99554.66;;;16.93
34807;BMP280;18310;55.586;12.286;2023-10-31T02:24:49;99562.56;;;16.91
34807;BMP280;18310;55.586;12.286;2023-10-31T02:27:53;99563.84;;;16.86
34807;BMP280;18310;55.586;12.286;2023-10-31T02:30:56;99550.56;;;16.81
34807;BMP280;18310;55.586;12.286;2023-10-31T02:34:00;99549.38;;;16.82
34807;BMP280;18310;55.586;12.286;2023-10-31T02:37:04;99554.81;;;16.86
34807;BMP280;18310;55.586;12.286;2023-10-31T02:40:09;99553.13;;;16.92
34807;BMP280;18310;55.586;12.286;2023-10-31T02:43:12;99540.59;;;16.91
34807;BMP280;18310;55.586;12.286;2023-10-31T02:46:15;99535.72;;;16.99
34807;BMP280;18310;55.586;12.286;2023-10-31T02:49:20;99526.69;;;16.98
34807;BMP280;18310;55.586;12.286;2023-10-31T02:52:24;99523.69;;;16.92
34807;BMP280;18310;55.586;12.286;2023-10-31T02:55:27;99517.91;;;16.87
34807;BMP280;18310;55.586;12.286;2023-10-31T02:58:31;99532.75;;;16.89
34807;BMP280;18310;55.586;12.286;2023-10-31T03:01:35;99524.09;;;16.91
34807;BMP280;18310;55.586;12.286;2023-10-31T03:04:38;99527.53;;;16.95
34807;BMP280;18310;55.586;12.286;2023-10-31T03:07:43;99523.25;;;16.94
34807;BMP280;18310;55.586;12.286;2023-10-31T03:10:47;99525.66;;;16.92
34807;BMP280;18310;55.586;12.286;2023-10-31T03:13:53;99520.56;;;16.90
34807;BMP280;18310;55.586;12.286;2023-10-31T03:16:58;99520.94;;;16.92
34807;BMP280;18310;55.586;12.286;2023-10-31T03:20:01;99519.72;;;16.93
34807;BMP280;18310;55.586;12.286;2023-10-31T03:23:06;99516.69;;;16.88
34807;BMP280;18310;55.586;12.286;2023-10-31T03:26:09;99509.25;;;16.88
34807;BMP280;18310;55.586;12.286;2023-10-31T03:29:13;99505.34;;;16.86
34807;BMP280;18310;55.586;12.286;2023-10-31T03:32:16;99491.34;;;16.80
34807;BMP280;18310;55.586;12.286;2023-10-31T03:35:19;99487.50;;;16.74
34807;BMP280;18310;55.586;12.286;2023-10-31T03:38:24;99481.97;;;16.78
34807;BMP280;18310;55.586;12.286;2023-10-31T03:41:27;99483.94;;;16.77
34807;BMP280;18310;55.586;12.286;2023-10-31T03:44:31;99488.28;;;16.75
34807;BMP280;18310;55.586;12.286;2023-10-31T03:47:34;99492.31;;;16.70
34807;BMP280;18310;55.586;12.286;2023-10-31T03:50:38;99484.16;;;16.67
34807;BMP280;18310;55.586;12.286;2023-10-31T03:53:46;99486.13;;;16.66
34807;BMP280;18310;55.586;12.286;2023-10-31T03:56:50;99489.28;;;16.65
34807;BMP280;18310;55.586;12.286;2023-10-31T03:59:54;99489.66;;;16.67
34807;BMP280;18310;55.586;12.286;2023-10-31T04:02:57;99491.88;;;16.72
34807;BMP280;18310;55.586;12.286;2023-10-31T04:06:01;99478.78;;;16.79
34807;BMP280;18310;55.586;12.286;2023-10-31T04:09:05;99476.31;;;16.85
34807;BMP280;18310;55.586;12.286;2023-10-31T04:12:09;99468.06;;;16.85
34807;BMP280;18310;55.586;12.286;2023-10-31T04:16:10;99457.78;;;16.89
34807;BMP280;18310;55.586;12.286;2023-10-31T04:19:14;99451.09;;;16.90
34807;BMP280;18310;55.586;12.286;2023-10-31T04:22:17;99448.69;;;16.92
34807;BMP280;18310;55.586;12.286;2023-10-31T04:25:20;99450.22;;;16.93
34807;BMP280;18310;55.586;12.286;2023-10-31T04:28:24;99453.31;;;16.95
34807;BMP280;18310;55.586;12.286;2023-10-31T04:31:28;99436.41;;;16.97
34807;BMP280;18310;55.586;12.286;2023-10-31T04:34:44;99440.34;;;16.96
34807;BMP280;18310;55.586;12.286;2023-10-31T04:37:48;99429.47;;;16.92
34807;BMP280;18310;55.586;12.286;2023-10-31T04:40:51;99419.38;;;16.85
34807;BMP280;18310;55.586;12.286;2023-10-31T04:43:54;99418.25;;;16.83
34807;BMP280;18310;55.586;12.286;2023-10-31T04:46:59;99423.41;;;16.81
34807;BMP280;18310;55.586;12.286;2023-10-31T04:50:03;99420.69;;;16.81
34807;BMP280;18310;55.586;12.286;2023-10-31T04:53:07;99420.56;;;16.84
34807;BMP280;18310;55.586;12.286;2023-10-31T04:56:12;99422.75;;;16.93
34807;BMP280;18310;55.586;12.286;2023-10-31T04:59:15;99417.88;;;17.01
34807;BMP280;18310;55.586;12.286;2023-10-31T05:02:20;99419.00;;;17.03
34807;BMP280;18310;55.586;12.286;2023-10-31T05:05:24;99418.81;;;17.10
34807;BMP280;18310;55.586;12.286;2023-10-31T05:08:27;99419.84;;;17.16
34807;BMP280;18310;55.586;12.286;2023-10-31T05:11:31;99415.84;;;17.21
34807;BMP280;18310;55.586;12.286;2023-10-31T05:14:34;99404.41;;;17.22
34807;BMP280;18310;55.586;12.286;2023-10-31T05:17:38;99409.84;;;17.26
34807;BMP280;18310;55.586;12.286;2023-10-31T05:21:06;99407.94;;;17.23
34807;BMP280;18310;55.586;12.286;2023-10-31T05:24:09;99403.63;;;17.22
34807;BMP280;18310;55.586;12.286;2023-10-31T05:27:13;99395.47;;;17.18
34807;BMP280;18310;55.586;12.286;2023-10-31T05:30:16;99391.59;;;17.16
34807;BMP280;18310;55.586;12.286;2023-10-31T05:33:19;99375.63;;;17.11
34807;BMP280;18310;55.586;12.286;2023-10-31T05:36:25;99371.59;;;16.99
34807;BMP280;18310;55.586;12.286;2023-10-31T05:39:29;99360.25;;;16.97
34807;BMP280;18310;55.586;12.286;2023-10-31T05:42:33;99368.13;;;16.95
34807;BMP280;18310;55.586;12.286;2023-10-31T05:45:36;99357.72;;;16.86
34807;BMP280;18310;55.586;12.286;2023-10-31T05:48:46;99359.34;;;16.84
34807;BMP280;18310;55.586;12.286;2023-10-31T05:51:52;99348.47;;;16.80
34807;BMP280;18310;55.586;12.286;2023-10-31T05:54:56;99354.44;;;16.75
34807;BMP280;18310;55.586;12.286;2023-10-31T05:58:00;99352.56;;;16.72
34807;BMP280;18310;55.586;12.286;2023-10-31T06:01:03;99350.59;;;16.73
34807;BMP280;18310;55.586;12.286;2023-10-31T06:04:06;99341.97;;;16.71
34807;BMP280;18310;55.586;12.286;2023-10-31T06:07:13;99342.34;;;16.73
34807;BMP280;18310;55.586;12.286;2023-10-31T06:10:17;99336.84;;;16.73
34807;BMP280;18310;55.586;12.286;2023-10-31T06:13:20;99329.44;;;16.70
34807;BMP280;18310;55.586;12.286;2023-10-31T06:16:23;99330.31;;;16.67
34807;BMP280;18310;55.586;12.286;2023-10-31T06:19:26;99331.50;;;16.66
34807;BMP280;18310;55.586;12.286;2023-10-31T06:22:31;99331.88;;;16.68
34807;BMP280;18310;55.586;12.286;2023-10-31T06:25:34;99341.13;;;16.74
34807;BMP280;18310;55.586;12.286;2023-10-31T06:28:44;99341.06;;;16.77
34807;BMP280;18310;55.586;12.286;2023-10-31T06:32:07;99319.44;;;16.79
34807;BMP280;18310;55.586;12.286;2023-10-31T06:35:11;99313.16;;;16.79
34807;BMP280;18310;55.586;12.286;2023-10-31T06:38:15;99310.06;;;16.77
34807;BMP280;18310;55.586;12.286;2023-10-31T06:41:19;99313.59;;;16.77
34807;BMP280;18310;55.586;12.286;2023-10-31T06:44:22;99302.25;;;16.75
34807;BMP280;18310;55.586;12.286;2023-10-31T06:47:25;99310.16;;;16.73
34807;BMP280;18310;55.586;12.286;2023-10-31T06:50:29;99302.75;;;16.70
34807;BMP280;18310;55.586;12.286;2023-10-31T06:53:41;99303.97;;;16.69
34807;BMP280;18310;55.586;12.286;2023-10-31T06:56:45;99295.72;;;16.69
34807;BMP280;18310;55.586;12.286;2023-10-31T07:01:35;99289.28;;;16.76
34807;BMP280;18310;55.586;12.286;2023-10-31T07:04:39;99280.28;;;16.75
34807;BMP280;18310;55.586;12.286;2023-10-31T07:07:43;99269.88;;;16.67
34807;BMP280;18310;55.586;12.286;2023-10-31T07:10:47;99267.28;;;16.60
34807;BMP280;18310;55.586;12.286;2023-10-31T07:13:50;99275.28;;;16.54
34807;BMP280;18310;55.586;12.286;2023-10-31T07:16:56;99270.22;;;16.53
34807;BMP280;18310;55.586;12.286;2023-10-31T07:19:59;99271.81;;;16.50
34807;BMP280;18310;55.586;12.286;2023-10-31T07:23:03;99258.50;;;16.49
34807;BMP280;18310;55.586;12.286;2023-10-31T07:26:06;99256.97;;;16.48
34807;BMP280;18310;55.586;12.286;2023-10-31T07:29:09;99256.72;;;16.42
34807;BMP280;18310;55.586;12.286;2023-10-31T07:32:16;99259.88;;;16.40
34807;BMP280;18310;55.586;12.286;2023-10-31T07:35:19;99260.72;;;16.37
34807;BMP280;18310;55.586;12.286;2023-10-31T07:38:23;99253.69;;;16.36
34807;BMP280;18310;55.586;12.286;2023-10-31T07:41:27;99250.63;;;16.34
34807;BMP280;18310;55.586;12.286;2023-10-31T07:44:30;99253.78;;;16.33
34807;BMP280;18310;55.586;12.286;2023-10-31T07:47:35;99253.78;;;16.33
34807;BMP280;18310;55.586;12.286;2023-10-31T07:50:38;99255.00;;;16.32
34807;BMP280;18310;55.586;12.286;2023-10-31T07:53:42;99249.50;;;16.32
34807;BMP280;18310;55.586;12.286;2023-10-31T07:56:46;99238.94;;;16.30
34807;BMP280;18310;55.586;12.286;2023-10-31T07:59:49;99252.16;;;16.35
34807;BMP280;18310;55.586;12.286;2023-10-31T08:02:54;99245.22;;;16.31
34807;BMP280;18310;55.586;12.286;2023-10-31T08:05:58;99238.88;;;16.34
34807;BMP280;18310;55.586;12.286;2023-10-31T08:09:23;99235.66;;;16.35
34807;BMP280;18310;55.586;12.286;2023-10-31T08:12:26;99234.81;;;16.38
34807;BMP280;18310;55.586;12.286;2023-10-31T08:15:29;99234.75;;;16.42
34807;BMP280;18310;55.586;12.286;2023-10-31T08:18:33;99235.59;;;16.39
34807;BMP280;18310;55.586;12.286;2023-10-31T08:21:36;99235.25;;;16.37
34807;BMP280;18310;55.586;12.286;2023-10-31T08:24:41;99236.91;;;16.34
34807;BMP280;18310;55.586;12.286;2023-10-31T08:27:45;99226.03;;;16.27
34807;BMP280;18310;55.586;12.286;2023-10-31T08:30:48;99231.53;;;16.27
34807;BMP280;18310;55.586;12.286;2023-10-31T08:33:52;99232.31;;;16.28
34807;BMP280;18310;55.586;12.286;2023-10-31T08:36:55;99228.88;;;16.24
34807;BMP280;18310;55.586;12.286;2023-10-31T08:40:00;99232.38;;;16.24
34807;BMP280;18310;55.586;12.286;2023-10-31T08:43:05;99224.16;;;16.24
34807;BMP280;18310;55.586;12.286;2023-10-31T08:46:09;99230.34;;;16.28
34807;BMP280;18310;55.586;12.286;2023-10-31T08:49:14;99235.00;;;16.31
34807;BMP280;18310;55.586;12.286;2023-10-31T08:52:17;99225.56;;;16.32
34807;BMP280;18310;55.586;12.286;2023-10-31T08:55:22;99220.06;;;16.32
34807;BMP280;18310;55.586;12.286;2023-10-31T08:58:27;99225.91;;;16.34
34807;BMP280;18310;55.586;12.286;2023-10-31T09:01:31;99232.94;;;16.35
34807;BMP280;18310;55.586;12.286;2023-10-31T09:04:36;99221.94;;;16.35
34807;BMP280;18310;55.586;12.286;2023-10-31T09:07:39;99220.75;;;16.36
34807;BMP280;18310;55.586;12.286;2023-10-31T09:10:44;99226.53;;;16.42
34807;BMP280;18310;55.586;12.286;2023-10-31T09:13:48;99220.25;;;16.41
34807;BMP280;18310;55.586;12.286;2023-10-31T09:16:52;99221.28;;;16.48
34807;BMP280;18310;55.586;12.286;2023-10-31T09:19:55;99223.25;;;16.47
34807;BMP280;18310;55.586;12.286;2023-10-31T09:22:59;99222.81;;;16.49
34807;BMP280;18310;55.586;12.286;2023-10-31T09:26:04;99221.72;;;16.46
34807;BMP280;18310;55.586;12.286;2023-10-31T09:29:07;99223.41;;;16.40
34807;BMP280;18310;55.586;12.286;2023-10-31T09:32:23;99232.00;;;16.42
34807;BMP280;18310;55.586;12.286;2023-10-31T09:35:28;99232.25;;;16.31
34807;BMP280;18310;55.586;12.286;2023-10-31T09:38:31;99233.03;;;16.32
34807;BMP280;18310;55.586;12.286;2023-10-31T09:41:37;99227.97;;;16.30
34807;BMP280;18310;55.586;12.286;2023-10-31T09:44:40;99227.25;;;16.26
34807;BMP280;18310;55.586;12.286;2023-10-31T09:47:44;99224.69;;;16.19
34807;BMP280;18310;55.586;12.286;2023-10-31T09:50:47;99221.56;;;16.17
34807;BMP280;18310;55.586;12.286;2023-10-31T09:53:54;99209.63;;;16.08
34807;BMP280;18310;55.586;12.286;2023-10-31T09:56:59;99218.13;;;16.13
34807;BMP280;18310;55.586;12.286;2023-10-31T10:00:02;99224.06;;;16.12
34807;BMP280;18310;55.586;12.286;2023-10-31T10:03:06;99219.13;;;16.03
34807;BMP280;18310;55.586;12.286;2023-10-31T10:06:10;99221.25;;;15.96
34807;BMP280;18310;55.586;12.286;2023-10-31T10:09:14;99223.16;;;15.79
34807;BMP280;18310;55.586;12.286;2023-10-31T10:12:19;99221.78;;;15.71
34807;BMP280;18310;55.586;12.286;2023-10-31T10:15:22;99218.84;;;15.62
34807;BMP280;18310;55.586;12.286;2023-10-31T10:18:25;99224.94;;;15.50
34807;BMP280;18310;55.586;12.286;2023-10-31T10:21:46;99218.16;;;15.34
34807;BMP280;18310;55.586;12.286;2023-10-31T10:24:50;99215.97;;;15.26
34807;BMP280;18310;55.586;12.286;2023-10-31T10:27:54;99209.84;;;15.18
34807;BMP280;18310;55.586;12.286;2023-10-31T10:30:57;99197.56;;;15.03
34807;BMP280;18310;55.586;12.286;2023-10-31T10:34:01;99214.72;;;15.07
34807;BMP280;18310;55.586;12.286;2023-10-31T10:37:06;99208.22;;;14.98
34807;BMP280;18310;55.586;12.286;2023-10-31T10:40:11;99196.91;;;14.95
34807;BMP280;18310;55.586;12.286;2023-10-31T10:43:20;99194.66;;;14.90
34807;BMP280;18310;55.586;12.286;2023-10-31T10:46:27;99195.50;;;14.87
34807;BMP280;18310;55.586;12.286;2023-10-31T10:49:36;99204.13;;;14.86
34807;BMP280;18310;55.586;12.286;2023-10-31T10:52:44;99214.25;;;14.89
34807;BMP280;18310;55.586;12.286;2023-10-31T10:55:51;99207.13;;;14.72
34807;BMP280;18310;55.586;12.286;2023-10-31T10:59:03;99207.53;;;14.70
34807;BMP280;18310;55.586;12.286;2023-10-31T11:02:07;99216.50;;;14.71
34807;BMP280;18310;55.586;12.286;2023-10-31T11:05:13;99213.41;;;14.69
34807;BMP280;18310;55.586;12.286;2023-10-31T11:08:20;99208.69;;;14.69
34807;BMP280;18310;55.586;12.286;2023-10-31T11:11:26;99211.81;;;14.71
34807;BMP280;18310;55.586;12.286;2023-10-31T11:14:32;99205.56;;;14.71
34807;BMP280;18310;55.586;12.286;2023-10-31T11:17:40;99198.16;;;14.68
34807;BMP280;18310;55.586;12.286;2023-10-31T11:20:44;99200.50;;;14.69
34807;BMP280;18310;55.586;12.286;2023-10-31T11:23:56;99202.84;;;14.67
34807;BMP280;18310;55.586;12.286;2023-10-31T11:27:01;99207.16;;;14.68
34807;BMP280;18310;55.586;12.286;2023-10-31T11:30:08;99195.78;;;14.70
34807;BMP280;18310;55.586;12.286;2023-10-31T11:33:23;99194.00;;;14.60
34807;BMP280;18310;55.586;12.286;2023-10-31T11:36:30;99191.69;;;14.55
34807;BMP280;18310;55.586;12.286;2023-10-31T11:39:34;99193.69;;;14.54
34807;BMP280;18310;55.586;12.286;2023-10-31T11:42:38;99188.31;;;14.47
34807;BMP280;18310;55.586;12.286;2023-10-31T11:45:44;99187.53;;;14.46
34807;BMP280;18310;55.586;12.286;2023-10-31T11:49:12;99192.13;;;14.53
34807;BMP280;18310;55.586;12.286;2023-10-31T11:52:15;99193.25;;;14.56
34807;BMP280;18310;55.586;12.286;2023-10-31T11:55:19;99188.56;;;14.56
34807;BMP280;18310;55.586;12.286;2023-10-31T11:58:24;99180.88;;;14.48
34807;BMP280;18310;55.586;12.286;2023-10-31T12:01:28;99188.94;;;14.58
34807;BMP280;18310;55.586;12.286;2023-10-31T12:04:33;99192.06;;;14.57
34807;BMP280;18310;55.586;12.286;2023-10-31T12:07:43;99194.00;;;14.60
34807;BMP280;18310;55.586;12.286;2023-10-31T12:10:46;99198.63;;;14.63
34807;BMP280;18310;55.586;12.286;2023-10-31T12:13:54;99192.69;;;14.68
34807;BMP280;18310;55.586;12.286;2023-10-31T12:17:03;99201.25;;;14.70
34807;BMP280;18310;55.586;12.286;2023-10-31T12:20:09;99212.59;;;14.72
34807;BMP280;18310;55.586;12.286;2023-10-31T12:23:13;99215.34;;;14.72
34807;BMP280;18310;55.586;12.286;2023-10-31T12:26:21;99218.50;;;14.67
34807;BMP280;18310;55.586;12.286;2023-10-31T12:29:24;99230.22;;;14.71
34807;BMP280;18310;55.586;12.286;2023-10-31T12:32:27;99227.81;;;14.73
34807;BMP280;18310;55.586;12.286;2023-10-31T12:35:32;99234.53;;;14.68
34807;BMP280;18310;55.586;12.286;2023-10-31T12:38:35;99234.59;;;14.65
34807;BMP280;18310;55.586;12.286;2023-10-31T12:41:40;99251.13;;;14.58
34807;BMP280;18310;55.586;12.286;2023-10-31T12:44:43;99257.81;;;14.53
34807;BMP280;18310;55.586;12.286;2023-10-31T12:48:00;99260.28;;;14.48
34807;BMP280;18310;55.586;12.286;2023-10-31T12:51:09;99276.69;;;14.48
34807;BMP280;18310;55.586;12.286;2023-10-31T12:54:27;99282.59;;;14.42
34807;BMP280;18310;55.586;12.286;2023-10-31T12:57:35;99294.84;;;14.31
34807;BMP280;18310;55.586;12.286;2023-10-31T13:00:38;99284.81;;;14.24
34807;BMP280;18310;55.586;12.286;2023-10-31T13:03:50;99289.19;;;14.18
34807;BMP280;18310;55.586;12.286;2023-10-31T13:06:59;99306.47;;;14.08
34807;BMP280;18310;55.586;12.286;2023-10-31T13:10:04;99312.84;;;13.98
34807;BMP280;18310;55.586;12.286;2023-10-31T13:13:07;99325.38;;;13.95
34807;BMP280;18310;55.586;12.286;2023-10-31T13:16:10;99341.09;;;13.84
34807;BMP280;18310;55.586;12.286;2023-10-31T13:19:15;99332.25;;;13.73
34807;BMP280;18310;55.586;12.286;2023-10-31T13:22:21;99335.44;;;13.65
34807;BMP280;18310;55.586;12.286;2023-10-31T13:25:24;99350.38;;;13.53
34807;BMP280;18310;55.586;12.286;2023-10-31T13:28:27;99345.00;;;13.39
34807;BMP280;18310;55.586;12.286;2023-10-31T13:31:32;99360.69;;;13.35
34807;BMP280;18310;55.586;12.286;2023-10-31T13:34:36;99365.78;;;13.29
34807;BMP280;18310;55.586;12.286;2023-10-31T13:37:40;99375.59;;;13.23
34807;BMP280;18310;55.586;12.286;2023-10-31T13:40:43;99391.22;;;13.19
34807;BMP280;18310;55.586;12.286;2023-10-31T13:43:51;99383.03;;;13.16
34807;BMP280;18310;55.586;12.286;2023-10-31T13:46:54;99388.53;;;13.12
34807;BMP280;18310;55.586;12.286;2023-10-31T13:52:13;99420.97;;;13.03
34807;BMP280;18310;55.586;12.286;2023-10-31T13:55:17;99422.56;;;12.93
34807;BMP280;18310;55.586;12.286;2023-10-31T13:58:20;99430.38;;;12.91
34807;BMP280;18310;55.586;12.286;2023-10-31T14:01:23;99430.81;;;12.83
34807;BMP280;18310;55.586;12.286;2023-10-31T14:04:27;99428.13;;;12.76
34807;BMP280;18310;55.586;12.286;2023-10-31T14:07:32;99439.81;;;12.76
34807;BMP280;18310;55.586;12.286;2023-10-31T14:10:37;99453.06;;;12.74
34807;BMP280;18310;55.586;12.286;2023-10-31T14:13:41;99451.53;;;12.66
34807;BMP280;18310;55.586;12.286;2023-10-31T14:16:46;99454.66;;;12.61
34807;BMP280;18310;55.586;12.286;2023-10-31T14:19:50;99447.31;;;12.51
34807;BMP280;18310;55.586;12.286;2023-10-31T14:22:55;99455.06;;;12.52
34807;BMP280;18310;55.586;12.286;2023-10-31T14:25:59;99472.25;;;12.49
34807;BMP280;18310;55.586;12.286;2023-10-31T14:29:02;99477.28;;;12.47
34807;BMP280;18310;55.586;12.286;2023-10-31T14:32:06;99482.75;;;12.47
34807;BMP280;18310;55.586;12.286;2023-10-31T14:35:10;99487.81;;;12.45
34807;BMP280;18310;55.586;12.286;2023-10-31T14:38:15;99490.56;;;12.42
34807;BMP280;18310;55.586;12.286;2023-10-31T14:41:19;99498.75;;;12.38
34807;BMP280;18310;55.586;12.286;2023-10-31T14:44:22;99503.44;;;12.41
34807;BMP280;18310;55.586;12.286;2023-10-31T14:47:26;99508.91;;;12.41
34807;BMP280;18310;55.586;12.286;2023-10-31T14:50:30;99514.72;;;12.40
34807;BMP280;18310;55.586;12.286;2023-10-31T14:53:34;99532.63;;;12.44
34807;BMP280;18310;55.586;12.286;2023-10-31T14:56:38;99540.47;;;12.49
34807;BMP280;18310;55.586;12.286;2023-10-31T14:59:42;99552.94;;;12.43
34807;BMP280;18310;55.586;12.286;2023-10-31T15:02:47;99553.69;;;12.47
34807;BMP280;18310;55.586;12.286;2023-10-31T15:05:50;99567.72;;;12.46
34807;BMP280;18310;55.586;12.286;2023-10-31T15:08:55;99573.97;;;12.46
34807;BMP280;18310;55.586;12.286;2023-10-31T15:11:58;99586.44;;;12.47
34807;BMP280;18310;55.586;12.286;2023-10-31T15:15:02;99589.56;;;12.39
34807;BMP280;18310;55.586;12.286;2023-10-31T15:18:05;99600.47;;;12.39
34807;BMP280;18310;55.586;12.286;2023-10-31T15:21:08;99603.56;;;12.44
34807;BMP280;18310;55.586;12.286;2023-10-31T15:24:13;99604.00;;;12.43
34807;BMP280;18310;55.586;12.286;2023-10-31T15:27:16;99612.19;;;12.43
34807;BMP280;18310;55.586;12.286;2023-10-31T15:30:19;99620.34;;;12.39
34807;BMP280;18310;55.586;12.286;2023-10-31T15:33:23;99618.44;;;12.43
34807;BMP280;18310;55.586;12.286;2023-10-31T15:36:26;99630.13;;;12.44
34807;BMP280;18310;55.586;12.286;2023-10-31T15:39:30;99637.91;;;12.42
34807;BMP280;18310;55.586;12.286;2023-10-31T15:42:33;99646.88;;;12.42
34807;BMP280;18310;55.586;12.286;2023-10-31T15:45:36;99660.13;;;12.40
34807;BMP280;18310;55.586;12.286;2023-10-31T15:48:43;99644.53;;;12.30
34807;BMP280;18310;55.586;12.286;2023-10-31T15:51:46;99669.88;;;12.41
34807;BMP280;18310;55.586;12.286;2023-10-31T15:54:51;99668.34;;;12.44
34807;BMP280;18310;55.586;12.286;2023-10-31T15:57:54;99673.34;;;12.45
34807;BMP280;18310;55.586;12.286;2023-10-31T16:00:57;99676.91;;;12.49
34807;BMP280;18310;55.586;12.286;2023-10-31T16:04:00;99688.56;;;12.46
34807;BMP280;18310;55.586;12.286;2023-10-31T16:07:03;99697.13;;;12.45
34807;BMP280;18310;55.586;12.286;2023-10-31T16:10:10;99702.22;;;12.46
34807;BMP280;18310;55.586;12.286;2023-10-31T16:13:13;99706.50;;;12.47
34807;BMP280;18310;55.586;12.286;2023-10-31T16:16:16;99711.19;;;12.47
34807;BMP280;18310;55.586;12.286;2023-10-31T16:19:19;99705.72;;;12.47
34807;BMP280;18310;55.586;12.286;2023-10-31T16:22:22;99721.72;;;12.48
34807;BMP280;18310;55.586;12.286;2023-10-31T16:25:27;99724.84;;;12.50
34807;BMP280;18310;55.586;12.286;2023-10-31T16:28:30;99736.91;;;12.46
34807;BMP280;18310;55.586;12.286;2023-10-31T16:31:33;99743.97;;;12.50
34807;BMP280;18310;55.586;12.286;2023-10-31T16:34:36;99743.16;;;12.46
34807;BMP280;18310;55.586;12.286;2023-10-31T16:37:39;99745.09;;;12.46
34807;BMP280;18310;55.586;12.286;2023-10-31T16:40:44;99761.47;;;12.46
34807;BMP280;18310;55.586;12.286;2023-10-31T16:43:51;99767.72;;;12.43
34807;BMP280;18310;55.586;12.286;2023-10-31T16:46:54;99775.13;;;12.42
34807;BMP280;18310;55.586;12.286;2023-10-31T16:50:02;99774.34;;;12.42
34807;BMP280;18310;55.586;12.286;2023-10-31T16:53:05;99778.59;;;12.39
34807;BMP280;18310;55.586;12.286;2023-10-31T16:56:10;99776.66;;;12.40
34807;BMP280;18310;55.586;12.286;2023-10-31T16:59:13;99794.59;;;12.44
34807;BMP280;18310;55.586;12.286;2023-10-31T17:02:16;99809.44;;;12.43
34807;BMP280;18310;55.586;12.286;2023-10-31T17:05:20;99807.03;;;12.38
34807;BMP280;18310;55.586;12.286;2023-10-31T17:08:23;99786.69;;;12.18
34807;BMP280;18310;55.586;12.286;2023-10-31T17:11:27;99819.53;;;12.36
34807;BMP280;18310;55.586;12.286;2023-10-31T17:14:31;99805.44;;;12.27
34807;BMP280;18310;55.586;12.286;2023-10-31T17:17:34;99823.41;;;12.35
34807;BMP280;18310;55.586;12.286;2023-10-31T17:20:37;99817.94;;;12.28
34807;BMP280;18310;55.586;12.286;2023-10-31T17:23:40;99841.34;;;12.36
34807;BMP280;18310;55.586;12.286;2023-10-31T17:26:47;99837.47;;;12.37
34807;BMP280;18310;55.586;12.286;2023-10-31T17:29:50;99846.81;;;12.39
34807;BMP280;18310;55.586;12.286;2023-10-31T17:32:53;99850.75;;;12.42